Llanberis, United Kingdom
Current Conditions -  °F | °C
As of 1:50 PM on Sunday 23 Nov 2014 (Local Time) from EGOV Reporting Station
Clear Clear  
Wind Chill: 43°   Ceiling: Unl
Heat Index: 48°   Visibility: 6mi
Dew Point: 39°   Wind: 13mph
Humidity: 71%   Direction: 300°WNW
Pressure: 30.09"   Gusts: NA
Location:  53.12°N, 4.13°W
Report Text: EGOV 231350Z AUTO 30011KT 9999 NCD 09/04 Q1019
Loading
Personal Weather Stations






























Interactive Weather Map New forecast layout! Learn more

10-Day Weather Forecast

Advertisements
Track Severe Weather on mobile